createdAt,value
2022-12-28T00:00:13.003Z,19.83
2022-12-28T00:01:26.762Z,17.60
2022-12-28T00:02:29.965Z,19.63
2022-12-28T00:03:37.701Z,19.65
2022-12-28T00:04:44.832Z,19.35
2022-12-28T00:06:43.075Z,19.50
2022-12-28T00:07:34.706Z,19.73
2022-12-28T00:08:40.905Z,14.98
2022-12-28T00:09:46.770Z,17.45
2022-12-28T00:11:08.065Z,17.30
2022-12-28T00:12:15.025Z,20.20
2022-12-28T00:13:20.575Z,17.48
2022-12-28T00:14:27.176Z,18.02
2022-12-28T00:15:32.037Z,16.55
2022-12-28T00:16:42.258Z,18.42
2022-12-28T00:17:48.916Z,19.85
2022-12-28T00:18:55.281Z,18.58
2022-12-28T00:20:06.708Z,18.92
2022-12-28T00:21:10.390Z,25.33
2022-12-28T00:22:15.882Z,17.58
2022-12-28T00:23:32.942Z,16.63
2022-12-28T00:24:47.912Z,16.67
2022-12-28T00:25:57.917Z,19.52
2022-12-28T00:27:04.806Z,15.60
2022-12-28T00:28:08.091Z,16.27
2022-12-28T00:29:12.078Z,17.17
2022-12-28T00:30:23.231Z,15.52
2022-12-28T00:31:25.804Z,19.17
2022-12-28T00:32:30.950Z,17.40
2022-12-28T00:33:43.147Z,15.57
2022-12-28T00:34:51.122Z,19.35
2022-12-28T00:35:59.795Z,17.80
2022-12-28T00:37:12.951Z,18.83
2022-12-28T00:38:21.162Z,16.05
2022-12-28T00:39:32.433Z,16.85
2022-12-28T00:40:37.036Z,18.15
2022-12-28T00:41:40.546Z,22.13
2022-12-28T00:42:46.379Z,14.82
2022-12-28T00:44:05.034Z,16.33
2022-12-28T00:45:10.722Z,17.27
2022-12-28T00:46:14.138Z,16.85
2022-12-28T00:47:20.433Z,14.25
2022-12-28T00:48:28.436Z,16.65
2022-12-28T00:49:38.116Z,19.20
2022-12-28T00:50:51.794Z,14.25
2022-12-28T00:51:57.031Z,14.90
2022-12-28T00:53:04.176Z,18.58
2022-12-28T00:54:06.686Z,14.13
2022-12-28T00:55:12.295Z,14.82
2022-12-28T00:56:21.671Z,13.50
2022-12-28T00:57:27.539Z,14.65
2022-12-28T00:58:29.931Z,17.60
2022-12-28T00:59:45.112Z,17.38
2022-12-28T01:00:53.239Z,14.57
2022-12-28T01:02:00.441Z,12.90
2022-12-28T01:03:15.615Z,14.25
2022-12-28T01:04:18.293Z,14.27
2022-12-28T01:05:26.657Z,12.32
2022-12-28T01:06:32.955Z,16.92
2022-12-28T01:07:41.668Z,16.38
2022-12-28T01:08:44.733Z,15.10
2022-12-28T01:09:49.378Z,15.00
2022-12-28T01:10:53.802Z,15.27
2022-12-28T01:11:56.218Z,12.23
2022-12-28T01:13:00.895Z,13.05
2022-12-28T01:14:04.188Z,15.45
2022-12-28T01:15:14.548Z,14.45
2022-12-28T01:16:20.087Z,17.27
2022-12-28T01:17:25.198Z,17.33
2022-12-28T01:18:36.337Z,17.30
2022-12-28T01:19:39.125Z,15.60
2022-12-28T01:20:45.103Z,19.80
2022-12-28T01:21:52.971Z,16.65
2022-12-28T01:23:09.431Z,18.15
2022-12-28T01:25:34.098Z,17.05
2022-12-28T01:26:37.229Z,16.05
2022-12-28T01:27:45.651Z,15.93
2022-12-28T01:28:48.148Z,17.67
2022-12-28T01:29:57.867Z,18.48
2022-12-28T01:31:11.659Z,14.80
2022-12-28T01:32:14.073Z,16.40
2022-12-28T01:33:17.719Z,19.33
2022-12-28T01:34:27.398Z,15.95
2022-12-28T01:35:29.897Z,15.77
2022-12-28T01:36:47.492Z,15.55
2022-12-28T01:38:01.029Z,14.63
2022-12-28T01:39:06.809Z,15.82
2022-12-28T01:40:17.633Z,17.27
2022-12-28T01:41:20.930Z,13.05
2022-12-28T01:42:23.654Z,14.27
2022-12-28T01:43:58.987Z,14.10
2022-12-28T01:45:21.095Z,12.15
2022-12-28T01:46:50.258Z,13.48
2022-12-28T01:47:55.256Z,12.88
2022-12-28T01:49:12.982Z,13.30
2022-12-28T01:50:20.234Z,14.40
2022-12-28T01:51:36.262Z,16.50
2022-12-28T01:53:05.496Z,16.42
2022-12-28T01:54:08.166Z,16.38
2022-12-28T01:55:30.151Z,14.25
2022-12-28T01:56:43.878Z,14.57
2022-12-28T01:58:07.956Z,15.13
2022-12-28T01:59:12.918Z,15.27
2022-12-28T02:00:20.693Z,13.75
2022-12-28T02:01:31.090Z,12.80
2022-12-28T02:02:37.199Z,11.73
2022-12-28T02:03:43.957Z,12.73
2022-12-28T02:05:00.163Z,13.80
2022-12-28T02:06:10.118Z,14.52
2022-12-28T02:07:29.663Z,12.80
2022-12-28T02:08:54.535Z,13.18
2022-12-28T02:10:40.703Z,11.23
2022-12-28T02:11:24.354Z,15.70
2022-12-28T02:12:29.752Z,13.27
2022-12-28T02:13:39.145Z,13.32
2022-12-28T02:14:47.480Z,13.82
2022-12-28T02:15:53.040Z,13.38
2022-12-28T02:16:59.743Z,11.15
2022-12-28T02:18:02.754Z,13.93
2022-12-28T02:19:07.150Z,14.45
2022-12-28T02:20:10.870Z,14.70
2022-12-28T02:21:58.907Z,14.82
2022-12-28T02:23:36.495Z,18.15
2022-12-28T02:25:17.042Z,10.65
2022-12-28T02:26:58.993Z,12.40
2022-12-28T02:28:58.112Z,16.75
2022-12-28T02:30:11.975Z,13.48
2022-12-28T02:31:39.049Z,14.98
2022-12-28T02:33:09.446Z,12.18
2022-12-28T02:34:26.299Z,16.73
2022-12-28T02:35:37.454Z,13.48
2022-12-28T02:36:52.402Z,14.15
2022-12-28T02:38:00.730Z,14.57
2022-12-28T02:39:25.698Z,13.02
2022-12-28T02:40:35.277Z,12.80
2022-12-28T02:41:41.938Z,11.90
2022-12-28T02:42:58.510Z,11.93
2022-12-28T02:44:03.150Z,12.18
2022-12-28T02:45:56.783Z,13.65
2022-12-28T02:47:22.233Z,13.02
2022-12-28T02:48:49.143Z,10.35
2022-12-28T02:50:09.981Z,12.02
2022-12-28T02:51:37.871Z,12.38
2022-12-28T02:53:05.229Z,13.07
2022-12-28T02:54:53.546Z,10.85
2022-12-28T02:56:17.294Z,13.30
2022-12-28T02:58:18.019Z,13.35
2022-12-28T02:59:57.307Z,14.05
2022-12-28T03:01:19.754Z,12.25
2022-12-28T03:02:54.630Z,11.95
2022-12-28T03:04:26.311Z,12.18
2022-12-28T03:06:10.754Z,11.32
2022-12-28T03:08:13.009Z,14.18
2022-12-28T03:09:39.805Z,12.88
2022-12-28T03:11:16.084Z,12.23
2022-12-28T03:12:50.365Z,13.30
2022-12-28T03:14:03.889Z,13.95
2022-12-28T03:15:48.644Z,14.85
2022-12-28T03:17:19.723Z,13.15
2022-12-28T03:18:43.526Z,13.00
2022-12-28T03:20:12.716Z,15.50
2022-12-28T03:21:34.809Z,14.48
2022-12-28T03:23:01.501Z,16.02
2022-12-28T03:24:28.344Z,13.57
2022-12-28T03:25:57.064Z,10.70
2022-12-28T03:27:30.735Z,14.07
2022-12-28T03:28:58.264Z,16.30
2022-12-28T03:30:30.762Z,12.60
2022-12-28T03:31:35.065Z,14.63
2022-12-28T03:32:43.015Z,12.25
2022-12-28T03:33:48.961Z,14.68
2022-12-28T03:34:52.922Z,15.70
2022-12-28T03:36:24.640Z,16.60
2022-12-28T03:37:33.870Z,15.30
2022-12-28T03:39:02.417Z,16.02
2022-12-28T03:40:17.509Z,20.48
2022-12-28T03:41:28.996Z,16.58
2022-12-28T03:43:05.272Z,18.17
2022-12-28T03:44:29.309Z,15.45
2022-12-28T03:46:02.645Z,15.10
2022-12-28T03:47:16.522Z,16.20
2022-12-28T03:48:20.049Z,16.02
2022-12-28T03:49:25.047Z,17.65
2022-12-28T03:50:30.616Z,18.75
2022-12-28T03:51:34.089Z,19.73
2022-12-28T03:52:45.081Z,19.08
2022-12-28T03:53:50.783Z,19.25
2022-12-28T03:54:56.486Z,14.38
2022-12-28T03:56:31.127Z,18.40
2022-12-28T03:57:39.827Z,16.92
2022-12-28T03:58:52.472Z,15.57
2022-12-28T03:59:56.505Z,14.77
2022-12-28T04:01:04.757Z,16.55
2022-12-28T04:02:08.871Z,18.08
2022-12-28T04:03:19.080Z,16.00
2022-12-28T04:04:34.091Z,15.10
2022-12-28T04:05:36.648Z,16.95
2022-12-28T04:06:39.674Z,14.75
2022-12-28T04:07:42.735Z,16.63
2022-12-28T04:08:46.857Z,17.23
2022-12-28T04:09:49.747Z,15.45
2022-12-28T04:10:52.869Z,20.40
2022-12-28T04:11:55.265Z,17.63
2022-12-28T04:13:10.914Z,19.30
2022-12-28T04:14:29.271Z,16.73
2022-12-28T04:15:31.756Z,17.30
2022-12-28T04:16:36.605Z,18.88
2022-12-28T04:17:41.441Z,21.58
2022-12-28T04:18:44.612Z,21.33
2022-12-28T04:19:47.660Z,19.08
2022-12-28T04:20:54.510Z,17.77
2022-12-28T04:21:59.406Z,20.17
2022-12-28T04:23:06.223Z,19.35
2022-12-28T04:24:11.427Z,17.65
2022-12-28T04:25:14.690Z,18.45
2022-12-28T04:26:18.866Z,15.05
2022-12-28T04:27:24.425Z,22.92
2022-12-28T04:28:30.986Z,16.13
2022-12-28T04:29:52.631Z,18.27
2022-12-28T04:30:56.444Z,15.23
2022-12-28T04:31:59.108Z,19.67
2022-12-28T04:33:06.145Z,19.98
2022-12-28T04:34:12.258Z,18.58
2022-12-28T04:35:19.659Z,19.02
2022-12-28T04:36:26.575Z,16.08
2022-12-28T04:37:30.147Z,17.83
2022-12-28T04:38:33.021Z,14.65
2022-12-28T04:39:54.095Z,19.48
2022-12-28T04:40:57.901Z,17.73
2022-12-28T04:42:03.284Z,16.42
2022-12-28T04:43:05.787Z,16.65
2022-12-28T04:44:08.380Z,17.88
2022-12-28T04:45:11.095Z,18.20
2022-12-28T04:46:15.048Z,18.13
2022-12-28T04:47:17.630Z,20.48
2022-12-28T04:48:19.950Z,19.88
2022-12-28T04:49:22.541Z,19.58
2022-12-28T04:50:25.920Z,23.10
2022-12-28T04:51:29.399Z,21.13
2022-12-28T04:52:34.227Z,21.40
2022-12-28T04:53:38.439Z,23.48
2022-12-28T04:54:40.961Z,24.13
2022-12-28T04:55:43.644Z,23.90
2022-12-28T04:56:46.418Z,38.45
2022-12-28T04:57:49.191Z,27.42
2022-12-28T04:58:57.106Z,27.25
2022-12-28T04:59:59.440Z,30.02
2022-12-28T05:01:13.369Z,27.58
2022-12-28T05:02:15.979Z,24.67
2022-12-28T05:03:18.511Z,26.13
2022-12-28T05:04:20.987Z,28.33
2022-12-28T05:05:23.435Z,27.20
2022-12-28T05:06:27.505Z,27.35
2022-12-28T05:07:30.173Z,28.35
2022-12-28T05:08:34.208Z,25.35
2022-12-28T05:09:36.820Z,30.92
2022-12-28T05:10:39.278Z,28.15
2022-12-28T05:11:41.822Z,28.88
2022-12-28T05:12:44.334Z,29.55
2022-12-28T05:13:47.145Z,27.15
2022-12-28T05:14:49.633Z,27.75
2022-12-28T05:15:52.052Z,33.40
2022-12-28T05:16:54.544Z,27.85
2022-12-28T05:17:57.220Z,28.55
2022-12-28T05:19:02.257Z,30.17
2022-12-28T05:20:08.282Z,26.77
2022-12-28T05:21:21.874Z,28.67
2022-12-28T05:22:24.252Z,23.52
2022-12-28T05:23:28.630Z,25.60
2022-12-28T05:24:33.541Z,24.92
2022-12-28T05:25:36.052Z,27.05
2022-12-28T05:26:38.631Z,30.95
2022-12-28T05:27:41.107Z,28.70
2022-12-28T05:28:44.063Z,35.13
2022-12-28T05:29:47.269Z,26.08
2022-12-28T05:30:49.738Z,28.05
2022-12-28T05:31:52.432Z,27.52
2022-12-28T05:32:54.910Z,26.50
2022-12-28T05:33:59.757Z,31.58
2022-12-28T05:35:02.188Z,28.20
2022-12-28T05:36:13.099Z,33.42
2022-12-28T05:37:20.202Z,31.63
2022-12-28T05:38:25.039Z,29.15
2022-12-28T05:39:27.686Z,34.90
2022-12-28T05:40:30.619Z,42.67
2022-12-28T05:41:33.228Z,44.70
2022-12-28T05:42:36.505Z,39.50
2022-12-28T05:43:39.555Z,35.95
2022-12-28T05:44:49.326Z,36.95
2022-12-28T05:45:51.873Z,35.65
2022-12-28T05:46:54.461Z,39.17
2022-12-28T05:47:58.034Z,35.00
2022-12-28T05:49:01.120Z,43.03
2022-12-28T05:50:03.735Z,38.08
2022-12-28T05:51:12.244Z,36.72
2022-12-28T05:52:16.420Z,35.33
2022-12-28T05:53:18.785Z,37.13
2022-12-28T05:54:21.248Z,39.90
2022-12-28T05:55:28.358Z,36.70
2022-12-28T05:56:37.014Z,40.63
2022-12-28T05:57:39.589Z,33.90
2022-12-28T05:58:43.869Z,35.33
2022-12-28T05:59:46.893Z,35.35
2022-12-28T06:00:49.220Z,36.72
2022-12-28T06:01:51.878Z,39.90
2022-12-28T06:02:58.010Z,35.28
2022-12-28T06:04:06.896Z,30.25
2022-12-28T06:05:09.506Z,32.50
2022-12-28T06:06:14.606Z,35.33
2022-12-28T06:07:17.190Z,31.40
2022-12-28T06:08:22.658Z,29.58
2022-12-28T06:09:26.052Z,34.70
2022-12-28T06:10:28.441Z,32.88
2022-12-28T06:11:31.383Z,32.10
2022-12-28T06:12:33.703Z,32.67
2022-12-28T06:13:36.983Z,34.13
2022-12-28T06:14:47.400Z,32.58
2022-12-28T06:15:49.808Z,32.60
2022-12-28T06:16:52.711Z,33.55
2022-12-28T06:17:55.153Z,33.28
2022-12-28T06:18:57.806Z,56.42
2022-12-28T06:20:00.502Z,60.85
2022-12-28T06:21:08.481Z,59.30
2022-12-28T06:22:10.942Z,39.08
2022-12-28T06:23:14.222Z,44.55
2022-12-28T06:24:20.641Z,46.03
2022-12-28T06:25:23.306Z,46.53
2022-12-28T06:26:38.241Z,46.75
2022-12-28T06:27:43.763Z,48.35
2022-12-28T06:28:51.305Z,46.83
2022-12-28T06:29:54.079Z,50.30
2022-12-28T06:31:07.105Z,42.25
2022-12-28T06:32:10.871Z,52.55
2022-12-28T06:33:15.505Z,52.92
2022-12-28T06:34:18.444Z,58.05
2022-12-28T06:35:20.837Z,63.90
2022-12-28T06:36:35.312Z,66.32
2022-12-28T06:37:38.254Z,61.97
2022-12-28T06:38:41.031Z,59.95
2022-12-28T06:39:43.402Z,51.95
2022-12-28T06:41:12.390Z,46.65
2022-12-28T06:42:08.908Z,48.55
2022-12-28T06:43:11.284Z,47.33
2022-12-28T06:44:14.517Z,51.80
2022-12-28T06:45:17.051Z,45.20
2022-12-28T06:46:21.281Z,50.10
2022-12-28T06:47:23.741Z,53.25
2022-12-28T06:48:26.507Z,48.95
2022-12-28T06:49:29.057Z,46.67
2022-12-28T06:50:36.804Z,51.55
2022-12-28T06:51:52.491Z,51.42
2022-12-28T06:52:57.601Z,42.33
2022-12-28T06:54:02.309Z,46.28
2022-12-28T06:55:13.508Z,48.70
2022-12-28T06:56:29.203Z,46.60
2022-12-28T06:57:32.261Z,48.40
2022-12-28T06:58:37.799Z,45.30
2022-12-28T06:59:40.508Z,41.88
2022-12-28T07:00:43.265Z,47.50
2022-12-28T07:01:46.416Z,49.47
2022-12-28T07:02:49.187Z,41.80
2022-12-28T07:03:54.213Z,48.10
2022-12-28T07:04:56.887Z,46.08
2022-12-28T07:06:03.978Z,49.22
2022-12-28T07:07:08.829Z,62.90
2022-12-28T07:08:13.717Z,60.33
2022-12-28T07:09:16.842Z,56.72
2022-12-28T07:10:19.323Z,54.75
2022-12-28T07:11:22.776Z,55.35
2022-12-28T07:12:25.690Z,57.38
2022-12-28T07:13:28.541Z,55.20
2022-12-28T07:14:32.565Z,51.03
2022-12-28T07:15:36.302Z,58.90
2022-12-28T07:17:40.832Z,52.25
2022-12-28T07:18:43.691Z,44.58
2022-12-28T07:19:47.377Z,44.97
2022-12-28T07:20:59.171Z,44.95
2022-12-28T07:22:01.856Z,40.20
2022-12-28T07:23:04.318Z,53.75
2022-12-28T07:24:07.805Z,55.78
2022-12-28T07:25:10.755Z,57.53
2022-12-28T07:26:20.795Z,56.10
2022-12-28T07:27:23.800Z,54.33
2022-12-28T07:28:26.209Z,59.28
2022-12-28T07:29:30.500Z,57.47
2022-12-28T07:30:41.535Z,53.17
2022-12-28T07:31:45.965Z,39.95
2022-12-28T07:33:52.498Z,39.20
2022-12-28T07:34:55.107Z,34.03
2022-12-28T07:37:02.433Z,26.77
2022-12-28T07:38:05.031Z,27.48
2022-12-28T07:39:14.904Z,24.88
2022-12-28T07:40:23.891Z,29.13
2022-12-28T07:41:32.913Z,28.38
2022-12-28T07:42:35.630Z,29.95
2022-12-28T07:43:38.882Z,32.17
2022-12-28T07:44:49.408Z,27.48
2022-12-28T07:46:05.195Z,30.05
2022-12-28T07:47:16.596Z,26.13
2022-12-28T07:48:19.184Z,25.85
2022-12-28T07:49:23.576Z,25.75
2022-12-28T07:51:40.714Z,25.42
2022-12-28T07:52:52.463Z,26.40
2022-12-28T07:53:56.270Z,26.48
2022-12-28T07:54:58.759Z,20.73
2022-12-28T07:56:04.564Z,22.77
2022-12-28T07:57:10.830Z,18.15
2022-12-28T07:58:14.591Z,21.98
2022-12-28T07:59:37.944Z,19.85
2022-12-28T08:00:40.531Z,15.95
2022-12-28T08:01:50.381Z,17.40
2022-12-28T08:02:58.854Z,14.93
2022-12-28T08:04:03.956Z,15.13
2022-12-28T08:05:08.235Z,19.67
2022-12-28T08:06:13.861Z,22.42
2022-12-28T08:07:24.540Z,19.80
2022-12-28T08:08:28.311Z,18.10
2022-12-28T08:09:34.050Z,20.05
2022-12-28T08:10:36.728Z,19.75
2022-12-28T08:11:44.699Z,20.92
2022-12-28T08:12:47.292Z,15.63
2022-12-28T08:13:52.121Z,20.52
2022-12-28T08:14:54.848Z,17.88
2022-12-28T08:15:57.377Z,16.55
2022-12-28T08:16:59.918Z,21.02
2022-12-28T08:18:02.799Z,18.23
2022-12-28T08:19:09.244Z,14.82
2022-12-28T08:20:12.426Z,16.02
2022-12-28T08:21:21.250Z,16.00
2022-12-28T08:22:27.211Z,13.48
2022-12-28T08:23:37.229Z,13.73
2022-12-28T08:24:42.361Z,14.02
2022-12-28T08:25:46.770Z,16.27
2022-12-28T08:27:06.752Z,13.50
2022-12-28T08:28:16.331Z,16.58
2022-12-28T08:29:26.701Z,13.85
2022-12-28T08:30:56.670Z,15.00
2022-12-28T08:32:13.519Z,14.68
2022-12-28T08:33:37.225Z,15.38
2022-12-28T08:35:33.236Z,16.30
2022-12-28T08:36:37.214Z,12.65
2022-12-28T08:39:39.775Z,29.30
2022-12-28T08:41:21.674Z,29.10
2022-12-28T08:42:24.978Z,27.73
2022-12-28T08:44:06.173Z,28.48
2022-12-28T08:45:13.531Z,12.27
2022-12-28T08:46:31.675Z,13.60
2022-12-28T08:49:04.555Z,12.55
2022-12-28T08:50:20.034Z,11.65
2022-12-28T08:51:28.362Z,12.35
2022-12-28T08:52:39.489Z,9.50
2022-12-28T08:54:08.193Z,10.73
2022-12-28T08:55:18.282Z,9.57
2022-12-28T08:56:25.733Z,13.07
2022-12-28T08:57:37.341Z,11.02
2022-12-28T08:58:45.567Z,12.95
2022-12-28T08:59:51.185Z,12.90
2022-12-28T09:01:00.867Z,16.25
2022-12-28T09:03:20.654Z,14.80
2022-12-28T09:04:29.258Z,19.20
2022-12-28T09:05:39.378Z,15.23
2022-12-28T09:06:53.181Z,13.77
2022-12-28T09:07:59.774Z,15.65
2022-12-28T09:09:10.494Z,14.55
2022-12-28T09:10:26.146Z,12.70
2022-12-28T09:11:29.241Z,14.50
2022-12-28T09:12:35.875Z,14.65
2022-12-28T09:13:45.489Z,12.82
2022-12-28T09:14:52.474Z,14.20
2022-12-28T09:16:27.836Z,13.45
2022-12-28T09:18:41.504Z,14.27
2022-12-28T09:19:52.863Z,19.70
2022-12-28T09:20:59.237Z,15.25
2022-12-28T09:22:05.846Z,16.48
2022-12-28T09:23:11.456Z,18.02
2022-12-28T09:24:17.177Z,18.55
2022-12-28T09:25:22.407Z,17.45
2022-12-28T09:26:31.540Z,18.38
2022-12-28T09:27:39.906Z,17.48
2022-12-28T09:28:50.079Z,11.65
2022-12-28T09:29:54.386Z,15.20
2022-12-28T09:30:57.586Z,14.57
2022-12-28T09:32:02.965Z,15.85
2022-12-28T09:34:13.893Z,18.13
2022-12-28T09:35:23.313Z,15.18
2022-12-28T09:38:16.489Z,15.20
2022-12-28T09:39:37.001Z,19.02
2022-12-28T09:40:52.919Z,15.20
2022-12-28T09:42:11.891Z,13.35
2022-12-28T09:43:27.393Z,15.63
2022-12-28T09:45:11.069Z,16.70
2022-12-28T09:47:12.710Z,16.58
2022-12-28T09:51:30.647Z,14.43
2022-12-28T09:53:27.590Z,11.30
2022-12-28T09:55:08.395Z,12.45
2022-12-28T09:57:05.882Z,13.27
2022-12-28T09:58:57.260Z,12.13
2022-12-28T10:00:04.772Z,11.00
2022-12-28T10:03:38.058Z,11.90
2022-12-28T10:04:44.503Z,13.35
2022-12-28T10:05:59.894Z,14.05
2022-12-28T10:07:03.038Z,14.13
2022-12-28T10:08:06.023Z,10.65
2022-12-28T10:09:16.424Z,14.80
2022-12-28T10:11:28.317Z,12.70
2022-12-28T10:12:31.564Z,15.02
2022-12-28T10:13:54.480Z,11.98
2022-12-28T10:14:59.850Z,17.05
2022-12-28T10:16:05.444Z,12.30
2022-12-28T10:17:16.841Z,13.70
2022-12-28T10:19:32.527Z,17.30
2022-12-28T10:20:45.087Z,12.02
2022-12-28T10:22:02.440Z,17.20
2022-12-28T10:23:07.871Z,14.57
2022-12-28T10:25:46.815Z,16.10
2022-12-28T10:27:11.047Z,14.48
2022-12-28T10:28:37.955Z,18.08
2022-12-28T10:30:21.827Z,12.20
2022-12-28T10:31:42.011Z,10.02
2022-12-28T10:33:03.783Z,12.75
2022-12-28T10:34:22.412Z,11.57
2022-12-28T10:35:56.769Z,11.25
2022-12-28T10:38:39.905Z,11.07
2022-12-28T10:40:10.269Z,10.82
2022-12-28T10:41:31.091Z,12.63
2022-12-28T10:43:08.488Z,12.65
2022-12-28T10:44:39.780Z,11.50
2022-12-28T10:45:50.171Z,13.23
2022-12-28T10:46:57.907Z,13.63
2022-12-28T10:48:08.903Z,12.75
2022-12-28T10:49:15.982Z,16.05
2022-12-28T10:50:57.080Z,10.98
2022-12-28T10:52:15.429Z,11.73
2022-12-28T10:53:40.630Z,11.43
2022-12-28T10:54:43.521Z,14.40
2022-12-28T10:55:46.154Z,13.52
2022-12-28T10:56:53.584Z,12.73
2022-12-28T10:58:27.947Z,14.98
2022-12-28T10:59:25.820Z,12.10
2022-12-28T11:00:28.857Z,13.07
2022-12-28T11:01:34.051Z,12.45
2022-12-28T11:02:36.797Z,11.35
2022-12-28T11:03:20.572Z,9.55
2022-12-28T11:03:45.269Z,11.75
2022-12-28T11:04:58.670Z,12.15
2022-12-28T11:06:12.842Z,13.65
2022-12-28T11:07:28.248Z,12.82
2022-12-28T11:08:30.856Z,12.50
2022-12-28T11:09:35.655Z,15.90
2022-12-28T11:10:39.475Z,13.82
2022-12-28T11:11:43.965Z,17.75
2022-12-28T11:12:46.933Z,19.35
2022-12-28T11:14:02.773Z,18.08
2022-12-28T11:15:20.632Z,22.20
2022-12-28T11:16:23.300Z,15.65
2022-12-28T11:17:28.928Z,12.45
2022-12-28T11:18:38.027Z,13.43
2022-12-28T11:19:40.989Z,13.98
2022-12-28T11:20:46.756Z,12.75
2022-12-28T11:21:50.352Z,14.02
2022-12-28T11:22:54.109Z,13.93
2022-12-28T11:23:56.691Z,12.35
2022-12-28T11:25:01.117Z,15.68
2022-12-28T11:26:04.657Z,11.77
2022-12-28T11:27:14.139Z,11.38
2022-12-28T11:28:19.870Z,13.85
2022-12-28T11:29:25.522Z,15.48
2022-12-28T11:30:29.385Z,17.20
2022-12-28T11:31:36.322Z,13.60
2022-12-28T11:32:51.746Z,13.00
2022-12-28T11:33:59.309Z,13.88
2022-12-28T11:35:02.372Z,15.57
2022-12-28T11:36:17.177Z,13.30
2022-12-28T11:37:20.194Z,13.77
2022-12-28T11:38:43.758Z,14.57
2022-12-28T11:39:50.152Z,11.57
2022-12-28T11:40:55.720Z,11.02
2022-12-28T11:42:37.361Z,13.30
2022-12-28T11:43:33.332Z,12.32
2022-12-28T11:44:40.148Z,9.73
2022-12-28T11:45:54.336Z,11.25
2022-12-28T11:47:17.741Z,11.98
2022-12-28T11:48:42.272Z,15.38
2022-12-28T11:49:46.437Z,11.02
2022-12-28T11:50:53.285Z,12.27
2022-12-28T11:52:17.801Z,10.88
2022-12-28T11:53:23.854Z,11.10
2022-12-28T11:54:50.825Z,12.73
2022-12-28T11:56:05.117Z,12.40
2022-12-28T11:57:08.886Z,14.30
2022-12-28T11:58:30.130Z,16.15
2022-12-28T11:59:36.633Z,15.88
2022-12-28T12:00:39.182Z,12.48
2022-12-28T12:01:43.553Z,12.73
2022-12-28T12:02:50.136Z,13.48
2022-12-28T12:03:58.935Z,14.27
2022-12-28T12:05:39.398Z,14.07
2022-12-28T12:06:42.024Z,12.07
2022-12-28T12:07:49.155Z,14.40
2022-12-28T12:08:52.721Z,12.93
2022-12-28T12:10:14.389Z,14.10
2022-12-28T12:11:32.061Z,17.02
2022-12-28T12:12:37.405Z,11.52
2022-12-28T12:13:45.040Z,12.95
2022-12-28T12:14:56.144Z,15.75
2022-12-28T12:16:04.364Z,15.20
2022-12-28T12:17:43.063Z,13.68
2022-12-28T12:18:55.760Z,11.85
2022-12-28T12:20:01.979Z,14.77
2022-12-28T12:21:22.235Z,17.90
2022-12-28T12:22:36.432Z,16.40
2022-12-28T12:23:49.166Z,20.08
2022-12-28T12:25:03.320Z,18.30
2022-12-28T12:26:31.741Z,14.43
2022-12-28T12:27:40.634Z,16.38
2022-12-28T12:28:54.467Z,11.48
2022-12-28T12:30:03.205Z,17.75
2022-12-28T12:31:12.093Z,16.23
2022-12-28T12:32:43.567Z,15.48
2022-12-28T12:33:49.168Z,13.65
2022-12-28T12:34:57.264Z,13.00
2022-12-28T12:36:09.202Z,10.65
2022-12-28T12:37:30.956Z,12.38
2022-12-28T12:38:52.284Z,13.30
2022-12-28T12:40:18.509Z,12.68
2022-12-28T12:41:46.386Z,13.25
2022-12-28T12:43:30.275Z,15.95
2022-12-28T12:45:02.958Z,14.60
2022-12-28T12:46:16.737Z,13.88
2022-12-28T12:47:58.194Z,14.32
2022-12-28T12:49:15.536Z,13.50
2022-12-28T12:50:46.951Z,16.77
2022-12-28T12:52:15.807Z,19.23
2022-12-28T12:53:30.575Z,19.23
2022-12-28T12:55:04.049Z,16.33
2022-12-28T12:56:26.003Z,16.48
2022-12-28T12:57:49.973Z,15.02
2022-12-28T12:59:23.265Z,15.00
2022-12-28T13:00:34.859Z,19.25
2022-12-28T13:01:56.011Z,17.73
2022-12-28T13:03:04.594Z,23.35
2022-12-28T13:04:29.781Z,16.00
2022-12-28T13:05:38.866Z,19.65
2022-12-28T13:06:42.637Z,23.00
2022-12-28T13:07:57.737Z,20.80
2022-12-28T13:09:10.278Z,24.65
2022-12-28T13:10:44.747Z,18.77
2022-12-28T13:11:48.573Z,24.88
2022-12-28T13:13:02.204Z,21.13
2022-12-28T13:14:14.795Z,20.33
2022-12-28T13:15:23.214Z,16.70
2022-12-28T13:16:30.077Z,24.83
2022-12-28T13:17:39.989Z,23.35
2022-12-28T13:18:59.672Z,24.33
2022-12-28T13:20:21.765Z,27.08
2022-12-28T13:21:39.019Z,25.42
2022-12-28T13:22:54.693Z,27.33
2022-12-28T13:23:59.646Z,26.27
2022-12-28T13:25:02.306Z,30.85
2022-12-28T13:26:05.236Z,29.75
2022-12-28T13:27:23.295Z,24.77
2022-12-28T13:28:34.338Z,22.85
2022-12-28T13:29:40.196Z,22.00
2022-12-28T13:30:55.626Z,24.52
2022-12-28T13:32:37.743Z,22.85
2022-12-28T13:34:00.672Z,18.85
2022-12-28T13:35:06.742Z,17.75
2022-12-28T13:36:18.117Z,23.02
2022-12-28T13:37:22.419Z,15.30
2022-12-28T13:38:27.843Z,12.48
2022-12-28T13:39:41.824Z,16.75
2022-12-28T13:40:55.458Z,18.58
2022-12-28T13:42:07.636Z,18.50
2022-12-28T13:43:55.745Z,21.75
2022-12-28T13:45:02.916Z,20.83
2022-12-28T13:46:14.187Z,24.25
2022-12-28T13:47:42.571Z,23.08
2022-12-28T13:48:51.655Z,26.20
2022-12-28T13:50:16.011Z,21.50
2022-12-28T13:51:32.644Z,19.73
2022-12-28T13:53:15.189Z,20.27
2022-12-28T13:54:28.531Z,22.45
2022-12-28T13:57:50.306Z,23.35
2022-12-28T13:59:03.460Z,25.52
2022-12-28T14:00:08.061Z,18.95
2022-12-28T14:01:20.888Z,19.15
2022-12-28T14:02:27.831Z,18.67
2022-12-28T14:03:37.680Z,22.73
2022-12-28T14:04:54.781Z,19.55
2022-12-28T14:06:05.091Z,25.73
2022-12-28T14:07:18.585Z,22.42
2022-12-28T14:08:22.762Z,22.45
2022-12-28T14:09:25.727Z,23.13
2022-12-28T14:10:31.547Z,29.77
2022-12-28T14:11:42.648Z,24.63
2022-12-28T14:12:50.548Z,24.45
2022-12-28T14:13:57.816Z,26.90
2022-12-28T14:15:10.089Z,25.83
2022-12-28T14:16:18.617Z,23.85
2022-12-28T14:17:22.843Z,27.10
2022-12-28T14:18:26.625Z,21.25
2022-12-28T14:19:32.528Z,29.08
2022-12-28T14:21:06.720Z,24.02
2022-12-28T14:22:45.334Z,32.40
2022-12-28T14:24:07.212Z,38.67
2022-12-28T14:25:16.841Z,46.95
2022-12-28T14:26:21.709Z,47.30
2022-12-28T14:27:25.472Z,50.08
2022-12-28T14:28:38.775Z,48.17
2022-12-28T14:29:51.869Z,48.45
2022-12-28T14:31:05.342Z,33.13
2022-12-28T14:32:23.139Z,43.55
2022-12-28T14:34:49.747Z,64.25
2022-12-28T14:36:11.493Z,53.13
2022-12-28T14:37:28.500Z,99.88
2022-12-28T14:38:50.043Z,70.65
2022-12-28T14:39:52.810Z,72.38
2022-12-28T14:41:07.901Z,70.10
2022-12-28T14:42:26.705Z,61.97
2022-12-28T14:43:41.967Z,86.63
2022-12-28T14:46:05.310Z,80.85
2022-12-28T14:47:46.584Z,51.75
2022-12-28T14:51:49.382Z,44.53
2022-12-28T14:57:23.075Z,44.83
2022-12-28T14:57:47.890Z,39.30
2022-12-28T14:59:13.666Z,29.85
2022-12-28T15:00:34.984Z,34.72
2022-12-28T15:01:49.865Z,34.38
2022-12-28T15:03:25.212Z,37.85
2022-12-28T15:05:04.325Z,44.78
2022-12-28T15:06:14.289Z,34.00
2022-12-28T15:07:42.837Z,33.10
2022-12-28T15:09:06.758Z,44.20
2022-12-28T15:10:35.375Z,37.92
2022-12-28T15:11:45.506Z,36.95
2022-12-28T15:12:56.087Z,40.65
2022-12-28T15:14:05.585Z,40.58
2022-12-28T15:15:14.451Z,37.78
2022-12-28T15:16:31.747Z,42.00
2022-12-28T15:17:53.750Z,45.60
2022-12-28T15:18:57.419Z,60.85
2022-12-28T15:20:03.926Z,39.53
2022-12-28T15:21:07.671Z,38.28
2022-12-28T15:22:18.678Z,43.38
2022-12-28T15:23:32.862Z,44.65
2022-12-28T15:25:05.074Z,34.92
2022-12-28T15:26:14.476Z,42.50
2022-12-28T15:27:17.401Z,31.55
2022-12-28T15:28:20.329Z,25.92
2022-12-28T15:29:47.571Z,33.58
2022-12-28T15:30:48.978Z,27.30
2022-12-28T15:32:16.458Z,29.63
2022-12-28T15:33:30.735Z,29.38
2022-12-28T15:34:51.669Z,27.02
2022-12-28T15:36:17.245Z,29.08
2022-12-28T15:37:21.254Z,30.85
2022-12-28T15:38:28.821Z,30.38
2022-12-28T15:39:32.297Z,33.17
2022-12-28T15:40:34.880Z,39.85
2022-12-28T15:41:46.534Z,35.05
2022-12-28T15:42:49.530Z,34.00
2022-12-28T15:43:55.248Z,33.70
2022-12-28T15:44:58.132Z,28.55
2022-12-28T15:46:01.059Z,29.45
2022-12-28T15:47:03.554Z,30.30
2022-12-28T15:48:06.526Z,29.33
2022-12-28T15:49:12.863Z,30.98
2022-12-28T15:50:15.423Z,31.08
2022-12-28T15:51:24.920Z,31.10
2022-12-28T15:52:27.705Z,30.10
2022-12-28T15:53:35.595Z,34.03
2022-12-28T15:54:40.298Z,37.95
2022-12-28T15:55:59.924Z,42.17